createdAt,value
2022-10-02T00:02:21.678Z,69.18
2022-10-02T00:04:54.141Z,68.49
2022-10-02T00:07:29.104Z,68.71
2022-10-02T00:09:59.946Z,69.96
2022-10-02T00:12:29.775Z,68.82
2022-10-02T00:15:17.398Z,69.69
2022-10-02T00:17:48.009Z,70.22
2022-10-02T00:20:17.753Z,68.64
2022-10-02T00:22:47.626Z,70.14
2022-10-02T00:25:35.454Z,69.25
2022-10-02T00:28:26.933Z,69.12
2022-10-02T00:30:59.761Z,69.29
2022-10-02T00:34:01.825Z,68.29
2022-10-02T00:36:58.161Z,69.09
2022-10-02T00:39:41.058Z,68.78
2022-10-02T00:42:17.384Z,68.38
2022-10-02T00:44:58.525Z,71.12
2022-10-02T00:51:03.877Z,68.34
2022-10-02T00:54:09.351Z,68.37
2022-10-02T00:57:11.713Z,68.21
2022-10-02T00:59:58.483Z,68.68
2022-10-02T01:02:37.631Z,67.53
2022-10-02T01:05:11.820Z,69.25
2022-10-02T01:07:48.901Z,68.52
2022-10-02T01:10:27.773Z,69.42
2022-10-02T01:12:57.042Z,69.61
2022-10-02T01:15:46.703Z,68.82
2022-10-02T01:18:18.617Z,69.19
2022-10-02T01:20:56.320Z,68.42
2022-10-02T01:23:44.222Z,69.01
2022-10-02T01:26:12.597Z,69.05
2022-10-02T01:28:39.420Z,68.43
2022-10-02T01:31:21.784Z,68.06
2022-10-02T01:33:54.277Z,70.77
2022-10-02T01:36:21.925Z,70.12
2022-10-02T01:38:49.858Z,68.84
2022-10-02T01:41:16.590Z,69.77
2022-10-02T01:43:56.305Z,70.23
2022-10-02T01:46:38.078Z,70.30
2022-10-02T01:49:20.447Z,71.48
2022-10-02T01:52:15.358Z,71.04
2022-10-02T01:54:57.394Z,71.43
2022-10-02T01:57:35.815Z,71.86
2022-10-02T02:00:11.079Z,72.05
2022-10-02T02:02:43.374Z,70.84
2022-10-02T02:05:35.118Z,72.46
2022-10-02T02:08:30.761Z,73.40
2022-10-02T02:11:20.090Z,72.53
2022-10-02T02:14:02.085Z,73.42
2022-10-02T02:16:32.178Z,72.49
2022-10-02T02:19:11.182Z,72.51
2022-10-02T02:21:46.449Z,72.19
2022-10-02T02:24:38.069Z,71.98
2022-10-02T02:27:06.648Z,71.34
2022-10-02T02:29:37.539Z,71.00
2022-10-02T02:32:08.613Z,70.49
2022-10-02T02:34:45.717Z,70.25
2022-10-02T02:37:19.287Z,71.01
2022-10-02T02:39:53.337Z,70.29
2022-10-02T02:42:26.274Z,70.29
2022-10-02T02:45:01.252Z,71.66
2022-10-02T02:47:35.718Z,71.45
2022-10-02T02:50:11.746Z,71.39
2022-10-02T02:52:53.757Z,71.62
2022-10-02T02:55:25.562Z,70.89
2022-10-02T02:57:58.854Z,70.66
2022-10-02T03:00:25.993Z,70.06
2022-10-02T03:02:54.656Z,69.74
2022-10-02T03:05:24.359Z,71.85
2022-10-02T03:07:56.966Z,70.52
2022-10-02T03:10:31.437Z,69.26
2022-10-02T03:13:26.648Z,69.28
2022-10-02T03:16:16.981Z,69.79
2022-10-02T03:19:14.728Z,70.50
2022-10-02T03:22:02.257Z,69.81
2022-10-02T03:24:39.390Z,70.72
2022-10-02T03:27:12.714Z,70.47
2022-10-02T03:29:53.198Z,69.64
2022-10-02T03:32:21.467Z,69.29
2022-10-02T03:34:48.825Z,70.34
2022-10-02T03:37:16.030Z,70.29
2022-10-02T03:39:46.222Z,71.93
2022-10-02T03:42:15.377Z,72.41
2022-10-02T03:44:43.273Z,72.31
2022-10-02T03:47:10.268Z,72.38
2022-10-02T03:49:36.935Z,72.37
2022-10-02T03:52:03.637Z,71.43
2022-10-02T03:54:35.785Z,72.57
2022-10-02T03:57:05.482Z,72.51
2022-10-02T03:59:38.831Z,71.92
2022-10-02T04:02:12.482Z,73.27
2022-10-02T04:04:49.949Z,72.39
2022-10-02T04:07:26.790Z,72.37
2022-10-02T04:10:14.311Z,71.72
2022-10-02T04:12:49.991Z,72.87
2022-10-02T04:15:28.379Z,71.64
2022-10-02T04:18:04.623Z,72.31
2022-10-02T04:20:47.453Z,73.60
2022-10-02T04:23:29.976Z,72.98
2022-10-02T04:26:06.906Z,72.77
2022-10-02T04:28:44.680Z,74.13
2022-10-02T04:31:13.529Z,74.05
2022-10-02T04:33:40.851Z,72.44
2022-10-02T04:36:37.623Z,74.24
2022-10-02T04:39:26.477Z,74.28
2022-10-02T04:42:15.329Z,72.46
2022-10-02T04:44:53.275Z,73.40
2022-10-02T04:47:32.191Z,72.93
2022-10-02T04:50:30.365Z,72.86
2022-10-02T04:53:24.533Z,73.33
2022-10-02T04:56:02.593Z,72.63
2022-10-02T04:58:58.846Z,72.07
2022-10-02T05:01:25.573Z,74.23
2022-10-02T05:04:04.321Z,72.03
2022-10-02T05:06:49.308Z,71.89
2022-10-02T05:09:16.028Z,72.08
2022-10-02T05:11:49.126Z,71.62
2022-10-02T05:14:18.770Z,73.32
2022-10-02T05:17:07.386Z,72.00
2022-10-02T05:19:57.623Z,71.89
2022-10-02T05:23:04.819Z,69.89
2022-10-02T05:25:53.473Z,71.17
2022-10-02T05:28:29.623Z,70.40
2022-10-02T05:31:29.599Z,70.69
2022-10-02T05:34:34.995Z,69.75
2022-10-02T05:37:33.324Z,71.02
2022-10-02T05:40:29.683Z,71.90
2022-10-02T05:43:11.106Z,72.57
2022-10-02T05:45:40.789Z,73.47
2022-10-02T05:48:16.910Z,73.42
2022-10-02T05:50:49.823Z,73.90
2022-10-02T05:53:22.650Z,72.99
2022-10-02T05:56:12.319Z,72.13
2022-10-02T05:58:50.939Z,72.96
2022-10-02T06:01:30.578Z,73.65
2022-10-02T06:04:06.713Z,73.51
2022-10-02T06:06:41.278Z,72.40
2022-10-02T06:09:23.753Z,71.88
2022-10-02T06:12:02.772Z,71.58
2022-10-02T06:14:34.582Z,73.70
2022-10-02T06:17:07.742Z,73.30
2022-10-02T06:19:39.798Z,73.41
2022-10-02T06:22:25.052Z,72.46
2022-10-02T06:25:12.162Z,73.20
2022-10-02T06:27:40.952Z,72.49
2022-10-02T06:30:14.597Z,73.05
2022-10-02T06:32:46.635Z,72.91
2022-10-02T06:35:16.027Z,73.78
2022-10-02T06:38:10.844Z,73.54
2022-10-02T06:40:46.671Z,74.00
2022-10-02T06:43:19.488Z,74.18
2022-10-02T06:46:05.013Z,74.30
2022-10-02T06:48:41.079Z,73.72
2022-10-02T06:51:31.021Z,74.57
2022-10-02T06:54:01.279Z,74.63
2022-10-02T06:56:37.550Z,73.55
2022-10-02T06:59:37.530Z,73.27
2022-10-02T07:02:24.390Z,74.29
2022-10-02T07:05:24.612Z,73.26
2022-10-02T07:08:27.448Z,72.78
2022-10-02T07:11:12.267Z,72.38
2022-10-02T07:13:48.306Z,74.65
2022-10-02T07:16:20.203Z,73.97
2022-10-02T07:19:24.992Z,73.67
2022-10-02T07:22:20.504Z,72.82
2022-10-02T07:24:58.324Z,72.67
2022-10-02T07:27:46.438Z,70.65
2022-10-02T07:30:16.532Z,71.72
2022-10-02T07:32:48.621Z,70.88
2022-10-02T07:35:27.645Z,70.65
2022-10-02T07:38:13.058Z,69.91
2022-10-02T07:40:42.705Z,69.36
2022-10-02T07:43:37.302Z,69.40
2022-10-02T07:46:17.077Z,69.26
2022-10-02T07:49:04.311Z,68.77
2022-10-02T07:51:47.500Z,69.62
2022-10-02T07:54:39.953Z,69.78
2022-10-02T07:57:30.321Z,69.59
2022-10-02T08:00:13.142Z,69.32
2022-10-02T08:02:47.564Z,68.94
2022-10-02T08:05:23.243Z,68.62
2022-10-02T08:07:58.673Z,68.50
2022-10-02T08:10:31.478Z,68.73
2022-10-02T08:13:33.506Z,68.02
2022-10-02T08:20:36.378Z,69.26
2022-10-02T08:27:11.897Z,71.24
2022-10-02T08:42:59.506Z,70.47
2022-10-02T08:49:55.060Z,71.64
2022-10-02T08:52:52.839Z,70.79
2022-10-02T08:55:40.894Z,71.35
2022-10-02T08:58:10.884Z,71.22
2022-10-02T09:00:46.601Z,69.74
2022-10-02T09:03:48.841Z,69.01
2022-10-02T09:06:46.350Z,68.20
2022-10-02T09:09:58.921Z,66.85
2022-10-02T09:13:12.842Z,67.59
2022-10-02T09:16:15.182Z,65.54
2022-10-02T09:19:05.366Z,66.96
2022-10-02T09:22:19.297Z,65.87
2022-10-02T09:25:28.413Z,67.22
2022-10-02T09:28:07.015Z,66.44
2022-10-02T09:31:03.714Z,64.63
2022-10-02T09:34:05.865Z,64.43
2022-10-02T09:36:46.009Z,65.13
2022-10-02T09:39:37.247Z,65.61
2022-10-02T09:42:14.976Z,63.59
2022-10-02T09:44:47.684Z,64.25
2022-10-02T09:47:35.686Z,61.81
2022-10-02T09:50:08.100Z,61.75
2022-10-02T09:53:00.567Z,60.56
2022-10-02T09:55:55.066Z,61.20
2022-10-02T09:59:04.577Z,59.15
2022-10-02T10:02:03.407Z,57.56
2022-10-02T10:05:09.301Z,57.22
2022-10-02T10:08:10.302Z,57.18
2022-10-02T10:11:29.387Z,56.97
2022-10-02T10:14:23.320Z,57.17
2022-10-02T10:17:19.527Z,57.73
2022-10-02T10:20:12.836Z,57.22
2022-10-02T10:22:58.011Z,57.55
2022-10-02T10:26:06.295Z,56.02
2022-10-02T10:28:37.948Z,54.93
2022-10-02T10:31:35.362Z,55.02
2022-10-02T10:34:28.905Z,55.68
2022-10-02T10:37:33.076Z,54.15
2022-10-02T10:40:09.254Z,55.18
2022-10-02T10:43:19.173Z,53.93
2022-10-02T10:45:51.651Z,53.08
2022-10-02T10:48:48.496Z,52.57
2022-10-02T10:51:32.596Z,51.39
2022-10-02T10:54:29.112Z,49.94
2022-10-02T10:57:12.484Z,51.52
2022-10-02T11:00:01.269Z,48.63
2022-10-02T11:02:44.106Z,47.83
2022-10-02T11:05:48.429Z,46.98
2022-10-02T11:08:33.669Z,46.19
2022-10-02T11:11:27.947Z,45.61
2022-10-02T11:14:34.277Z,44.14
2022-10-02T11:17:28.093Z,43.62
2022-10-02T11:20:22.234Z,46.12
2022-10-02T11:23:07.243Z,47.85
2022-10-02T11:25:55.543Z,49.81
2022-10-02T11:28:28.661Z,50.17
2022-10-02T11:31:17.482Z,49.99
2022-10-02T11:34:13.683Z,50.30
2022-10-02T11:37:10.233Z,47.62
2022-10-02T11:39:53.419Z,47.43
2022-10-02T11:42:55.967Z,46.23
2022-10-02T11:45:44.392Z,45.86
2022-10-02T11:48:32.051Z,44.64
2022-10-02T11:51:30.859Z,44.84
2022-10-02T11:54:55.916Z,44.81
2022-10-02T11:57:32.201Z,45.40
2022-10-02T12:00:14.182Z,45.67
2022-10-02T12:02:43.843Z,45.97
2022-10-02T12:05:13.328Z,44.81
2022-10-02T12:08:01.688Z,46.17
2022-10-02T12:10:44.111Z,47.70
2022-10-02T12:13:20.668Z,48.19
2022-10-02T12:16:14.573Z,47.30
2022-10-02T12:19:19.596Z,45.59
2022-10-02T12:22:23.575Z,46.19
2022-10-02T12:25:21.662Z,46.33
2022-10-02T12:28:14.487Z,47.38
2022-10-02T12:31:05.317Z,48.79
2022-10-02T12:33:55.685Z,51.98
2022-10-02T12:36:41.152Z,56.85
2022-10-02T12:39:27.942Z,59.95
2022-10-02T12:42:13.863Z,59.46
2022-10-02T12:45:13.775Z,59.31
2022-10-02T12:48:07.150Z,59.37
2022-10-02T12:50:43.543Z,60.47
2022-10-02T12:53:31.960Z,59.78
2022-10-02T12:56:06.719Z,59.75
2022-10-02T12:59:05.444Z,60.39
2022-10-02T13:02:05.634Z,60.22
2022-10-02T13:04:46.607Z,60.87
2022-10-02T13:07:16.886Z,59.75
2022-10-02T13:09:54.490Z,59.17
2022-10-02T13:12:23.823Z,57.94
2022-10-02T13:14:56.475Z,57.21
2022-10-02T13:18:00.805Z,56.39
2022-10-02T13:20:48.143Z,56.83
2022-10-02T13:23:32.951Z,56.03
2022-10-02T13:26:05.157Z,56.58
2022-10-02T13:28:42.622Z,56.21
2022-10-02T13:31:11.414Z,53.94
2022-10-02T13:34:06.284Z,54.15
2022-10-02T13:37:15.756Z,53.33
2022-10-02T13:39:56.419Z,53.36
2022-10-02T13:43:01.711Z,53.87
2022-10-02T13:45:34.498Z,53.65
2022-10-02T13:48:44.734Z,54.69
2022-10-02T13:51:20.617Z,55.00
2022-10-02T13:54:09.131Z,53.77
2022-10-02T13:56:44.760Z,52.94
2022-10-02T13:59:11.351Z,53.40
2022-10-02T14:01:49.768Z,53.15
2022-10-02T14:04:41.619Z,54.75
2022-10-02T14:07:20.392Z,55.11
2022-10-02T14:09:54.391Z,54.82
2022-10-02T14:12:34.381Z,55.45
2022-10-02T14:15:19.070Z,56.30
2022-10-02T14:18:10.750Z,57.49
2022-10-02T14:20:43.442Z,57.19
2022-10-02T14:23:34.576Z,57.06
2022-10-02T14:26:13.974Z,58.84
2022-10-02T14:29:07.715Z,57.57
2022-10-02T14:31:56.818Z,57.59
2022-10-02T14:34:38.187Z,57.63
2022-10-02T14:37:16.759Z,57.62
2022-10-02T14:39:45.715Z,57.41
2022-10-02T14:42:23.592Z,56.27
2022-10-02T14:45:28.630Z,56.82
2022-10-02T14:48:29.609Z,57.53
2022-10-02T14:51:14.790Z,57.55
2022-10-02T14:54:00.295Z,57.49
2022-10-02T14:56:32.543Z,58.20
2022-10-02T14:59:11.450Z,57.26
2022-10-02T15:01:45.321Z,56.63
2022-10-02T15:04:28.304Z,57.43
2022-10-02T15:07:18.238Z,57.50
2022-10-02T15:09:44.824Z,57.46
2022-10-02T15:12:43.314Z,57.32
2022-10-02T15:15:16.044Z,57.79
2022-10-02T15:18:00.151Z,57.36
2022-10-02T15:21:00.859Z,56.51
2022-10-02T15:23:34.511Z,56.30
2022-10-02T15:26:19.961Z,56.26
2022-10-02T15:28:51.416Z,56.32
2022-10-02T15:31:40.851Z,54.74
2022-10-02T15:34:32.847Z,54.27
2022-10-02T15:37:24.438Z,54.37
2022-10-02T15:40:12.932Z,54.76
2022-10-02T15:42:55.117Z,54.13
2022-10-02T15:46:00.619Z,53.91
2022-10-02T15:48:58.832Z,54.13
2022-10-02T15:51:34.427Z,53.67
2022-10-02T15:54:32.482Z,53.26
2022-10-02T15:57:34.320Z,53.67
2022-10-02T16:00:14.440Z,53.03
2022-10-02T16:03:05.215Z,53.81
2022-10-02T16:05:56.714Z,53.03
2022-10-02T16:08:33.069Z,53.89
2022-10-02T16:11:51.176Z,52.97
2022-10-02T16:14:52.394Z,53.01
2022-10-02T16:17:43.118Z,52.67
2022-10-02T16:20:18.383Z,53.70
2022-10-02T16:23:02.591Z,53.87
2022-10-02T16:25:41.193Z,54.54
2022-10-02T16:28:16.664Z,54.06
2022-10-02T16:30:52.736Z,53.76
2022-10-02T16:33:54.297Z,53.37
2022-10-02T16:36:35.647Z,53.32
2022-10-02T16:39:23.232Z,53.56
2022-10-02T16:41:58.797Z,54.00
2022-10-02T16:44:44.224Z,54.31
2022-10-02T16:47:19.839Z,54.40
2022-10-02T16:50:15.106Z,54.24
2022-10-02T16:52:50.592Z,54.94
2022-10-02T16:55:42.199Z,55.62
2022-10-02T16:58:41.597Z,55.82
2022-10-02T17:01:22.436Z,55.64
2022-10-02T17:03:58.100Z,55.48
2022-10-02T17:06:32.964Z,55.15
2022-10-02T17:09:22.801Z,55.27
2022-10-02T17:11:57.593Z,55.79
2022-10-02T17:14:47.462Z,55.20
2022-10-02T17:17:23.028Z,55.95
2022-10-02T17:20:04.209Z,57.32
2022-10-02T17:22:33.899Z,57.73
2022-10-02T17:25:17.787Z,58.16
2022-10-02T17:28:01.179Z,58.28
2022-10-02T17:30:30.720Z,59.02
2022-10-02T17:33:03.187Z,58.30
2022-10-02T17:35:40.040Z,58.72
2022-10-02T17:38:20.494Z,59.08
2022-10-02T17:41:06.097Z,60.01
2022-10-02T17:43:58.125Z,60.10
2022-10-02T17:46:40.076Z,60.70
2022-10-02T17:49:19.755Z,60.74
2022-10-02T17:52:33.379Z,61.46
2022-10-02T17:55:34.130Z,61.42
2022-10-02T17:58:29.820Z,61.30
2022-10-02T18:01:18.366Z,61.81
2022-10-02T18:04:10.019Z,61.90
2022-10-02T18:07:15.497Z,61.63
2022-10-02T18:10:00.393Z,63.27
2022-10-02T18:12:56.830Z,63.99
2022-10-02T18:15:44.894Z,63.01
2022-10-02T18:18:35.044Z,62.04
2022-10-02T18:21:25.070Z,62.55
2022-10-02T18:23:51.654Z,62.51
2022-10-02T18:26:21.260Z,62.30
2022-10-02T18:29:22.686Z,62.34
2022-10-02T18:32:15.061Z,61.89
2022-10-02T18:35:03.953Z,62.46
2022-10-02T18:37:45.567Z,62.48
2022-10-02T18:40:17.187Z,63.28
2022-10-02T18:42:57.156Z,63.61
2022-10-02T18:45:39.020Z,63.39
2022-10-02T18:48:22.924Z,64.02
2022-10-02T18:51:10.896Z,63.58
2022-10-02T18:53:56.253Z,63.62
2022-10-02T18:56:41.851Z,64.58
2022-10-02T18:59:30.102Z,63.99
2022-10-02T19:02:17.422Z,63.94
2022-10-02T19:05:09.323Z,64.62
2022-10-02T19:07:45.684Z,64.91
2022-10-02T19:10:32.105Z,64.75
2022-10-02T19:13:17.568Z,65.23
2022-10-02T19:15:47.112Z,64.28
2022-10-02T19:18:24.085Z,64.23
2022-10-02T19:20:58.702Z,65.94
2022-10-02T19:23:42.736Z,65.79
2022-10-02T19:26:27.962Z,63.71
2022-10-02T19:28:59.436Z,65.47
2022-10-02T19:31:29.477Z,65.79
2022-10-02T19:34:03.490Z,66.31
2022-10-02T19:36:42.475Z,65.91
2022-10-02T19:39:19.518Z,64.93
2022-10-02T19:41:47.339Z,64.33
2022-10-02T19:44:22.801Z,65.07
2022-10-02T19:46:55.167Z,64.92
2022-10-02T19:49:31.010Z,64.16
2022-10-02T19:51:57.962Z,65.38
2022-10-02T19:54:35.627Z,64.92
2022-10-02T19:57:08.381Z,65.10
2022-10-02T19:59:42.008Z,65.91
2022-10-02T20:02:36.288Z,65.71
2022-10-02T20:05:07.516Z,66.17
2022-10-02T20:07:37.643Z,66.64
2022-10-02T20:10:21.146Z,66.75
2022-10-02T20:13:20.159Z,66.86
2022-10-02T20:16:16.351Z,66.86
2022-10-02T20:18:43.371Z,67.93
2022-10-02T20:21:18.835Z,66.70
2022-10-02T20:23:52.543Z,66.67
2022-10-02T20:26:23.108Z,67.34
2022-10-02T20:28:56.143Z,67.31
2022-10-02T20:31:40.245Z,67.20
2022-10-02T20:34:33.919Z,66.52
2022-10-02T20:37:12.044Z,66.98
2022-10-02T20:39:42.303Z,65.74
2022-10-02T20:42:29.144Z,66.83
2022-10-02T20:44:55.782Z,66.11
2022-10-02T20:47:50.059Z,65.09
2022-10-02T20:50:46.782Z,65.61
2022-10-02T20:53:28.612Z,65.18
2022-10-02T20:56:21.663Z,64.01
2022-10-02T20:59:06.377Z,64.63
2022-10-02T21:01:50.507Z,65.65
2022-10-02T21:04:38.989Z,65.43
2022-10-02T21:07:11.558Z,66.31
2022-10-02T21:09:54.558Z,66.33
2022-10-02T21:12:36.098Z,66.16
2022-10-02T21:15:39.756Z,66.80
2022-10-02T21:18:34.899Z,67.12
2022-10-02T21:21:04.526Z,66.51
2022-10-02T21:23:52.475Z,65.11
2022-10-02T21:26:40.938Z,65.08
2022-10-02T21:29:32.704Z,65.07
2022-10-02T21:32:33.358Z,65.50
2022-10-02T21:35:32.139Z,65.29
2022-10-02T21:38:35.629Z,65.73
2022-10-02T21:41:32.437Z,65.19
2022-10-02T21:44:54.597Z,65.57
2022-10-02T21:47:43.738Z,66.60
2022-10-02T21:50:31.585Z,65.53
2022-10-02T21:53:31.883Z,66.41
2022-10-02T21:56:25.538Z,65.69
2022-10-02T21:59:22.820Z,66.28
2022-10-02T22:02:09.299Z,65.34
2022-10-02T22:05:10.447Z,66.00
2022-10-02T22:07:55.454Z,66.16
2022-10-02T22:10:22.094Z,65.58
2022-10-02T22:13:12.744Z,66.17
2022-10-02T22:16:04.080Z,66.30
2022-10-02T22:18:54.610Z,65.28
2022-10-02T22:21:48.413Z,65.47
2022-10-02T22:24:33.840Z,66.45
2022-10-02T22:27:22.262Z,67.45
2022-10-02T22:29:48.874Z,67.65
2022-10-02T22:32:33.959Z,66.90
2022-10-02T22:35:27.354Z,66.83
2022-10-02T22:38:18.444Z,67.74
2022-10-02T22:40:55.129Z,66.55
2022-10-02T22:43:30.837Z,66.91
2022-10-02T22:46:09.062Z,67.20
2022-10-02T22:48:57.322Z,68.35
2022-10-02T22:51:36.269Z,68.13
2022-10-02T22:54:17.288Z,68.24
2022-10-02T22:57:03.631Z,68.76
2022-10-02T22:59:44.079Z,68.14
2022-10-02T23:02:37.264Z,67.93
2022-10-02T23:05:31.025Z,68.76
2022-10-02T23:08:06.696Z,68.41
2022-10-02T23:10:39.594Z,68.68
2022-10-02T23:13:15.441Z,68.52
2022-10-02T23:15:59.965Z,68.86
2022-10-02T23:18:41.851Z,68.23
2022-10-02T23:21:35.920Z,68.01
2022-10-02T23:24:11.794Z,69.27
2022-10-02T23:27:02.628Z,68.93
2022-10-02T23:30:10.051Z,67.23
2022-10-02T23:33:07.267Z,68.34
2022-10-02T23:36:15.415Z,69.47
2022-10-02T23:38:56.507Z,68.64
2022-10-02T23:41:40.339Z,69.56
2022-10-02T23:44:09.951Z,69.47
2022-10-02T23:46:50.049Z,69.25
2022-10-02T23:49:32.835Z,68.30
2022-10-02T23:52:18.243Z,68.02
2022-10-02T23:55:00.831Z,68.58
2022-10-02T23:57:56.419Z,68.76
